createdAt,value
2019-03-18T00:00:03.524Z,6.42
2019-03-18T00:02:32.687Z,6.60
2019-03-18T00:05:01.809Z,5.87
2019-03-18T00:07:30.927Z,6.17
2019-03-18T00:10:00.339Z,6.12
2019-03-18T00:12:29.449Z,7.20
2019-03-18T00:15:01.628Z,6.60
2019-03-18T00:17:29.503Z,6.53
2019-03-18T00:19:58.697Z,5.58
2019-03-18T00:22:27.823Z,5.92
2019-03-18T00:24:56.990Z,5.30
2019-03-18T00:27:26.073Z,5.78
2019-03-18T00:29:55.319Z,4.70
2019-03-18T00:32:24.455Z,6.12
2019-03-18T00:34:53.575Z,6.92
2019-03-18T00:37:22.749Z,6.00
2019-03-18T00:39:51.893Z,7.17
2019-03-18T00:42:21.007Z,5.45
2019-03-18T00:44:50.135Z,6.12
2019-03-18T00:47:19.250Z,5.78
2019-03-18T00:49:48.451Z,6.83
2019-03-18T00:52:17.674Z,6.90
2019-03-18T00:54:46.823Z,5.83
2019-03-18T00:57:15.946Z,6.55
2019-03-18T00:59:45.080Z,6.35
2019-03-18T01:02:14.229Z,6.25
2019-03-18T01:04:43.378Z,6.20
2019-03-18T01:07:12.603Z,6.80
2019-03-18T01:09:42.002Z,6.90
2019-03-18T01:12:11.082Z,6.55
2019-03-18T01:14:40.394Z,6.70
2019-03-18T01:17:09.514Z,6.70
2019-03-18T01:19:38.690Z,6.20
2019-03-18T01:22:07.770Z,6.42
2019-03-18T01:24:36.985Z,6.87
2019-03-18T01:27:06.107Z,5.12
2019-03-18T01:29:35.237Z,5.62
2019-03-18T01:32:04.365Z,5.90
2019-03-18T01:34:33.475Z,6.28
2019-03-18T01:37:02.621Z,6.20
2019-03-18T01:39:31.739Z,5.50
2019-03-18T01:42:00.903Z,5.67
2019-03-18T01:44:30.024Z,5.28
2019-03-18T01:46:59.158Z,5.45
2019-03-18T01:49:28.320Z,5.83
2019-03-18T01:51:57.489Z,5.17
2019-03-18T01:54:26.635Z,5.30
2019-03-18T01:56:55.741Z,5.72
2019-03-18T01:59:24.934Z,4.78
2019-03-18T02:01:54.093Z,4.85
2019-03-18T02:04:23.191Z,5.08
2019-03-18T02:06:52.425Z,5.55
2019-03-18T02:09:21.556Z,5.55
2019-03-18T02:11:50.665Z,5.67
2019-03-18T02:14:19.823Z,5.42
2019-03-18T02:16:49.016Z,5.65
2019-03-18T02:19:18.210Z,5.42
2019-03-18T02:21:47.491Z,5.37
2019-03-18T02:24:16.626Z,5.40
2019-03-18T02:26:45.704Z,5.45
2019-03-18T02:29:14.838Z,5.70
2019-03-18T02:31:43.951Z,5.55
2019-03-18T02:34:13.169Z,5.97
2019-03-18T02:36:42.293Z,4.95
2019-03-18T02:39:11.431Z,5.58
2019-03-18T02:41:40.574Z,5.55
2019-03-18T02:44:09.695Z,6.12
2019-03-18T02:46:38.813Z,5.97
2019-03-18T02:49:07.970Z,5.17
2019-03-18T02:51:37.079Z,6.25
2019-03-18T02:54:06.213Z,5.37
2019-03-18T02:56:35.335Z,5.28
2019-03-18T02:59:04.431Z,5.55
2019-03-18T03:01:33.566Z,5.90
2019-03-18T03:04:02.694Z,5.85
2019-03-18T03:06:31.829Z,5.45
2019-03-18T03:09:01.131Z,5.05
2019-03-18T03:11:33.956Z,5.90
2019-03-18T03:14:01.201Z,6.08
2019-03-18T03:16:30.343Z,5.70
2019-03-18T03:18:59.457Z,5.83
2019-03-18T03:21:28.631Z,5.40
2019-03-18T03:23:57.834Z,5.83
2019-03-18T03:26:26.960Z,5.20
2019-03-18T03:28:58.546Z,6.53
2019-03-18T03:31:27.329Z,6.53
2019-03-18T03:33:56.474Z,6.42
2019-03-18T03:36:25.609Z,6.15
2019-03-18T03:38:54.718Z,5.77
2019-03-18T03:41:23.928Z,5.92
2019-03-18T03:43:53.076Z,5.78
2019-03-18T03:46:22.187Z,5.72
2019-03-18T03:48:51.290Z,5.75
2019-03-18T03:51:20.585Z,6.28
2019-03-18T03:53:49.707Z,5.92
2019-03-18T03:56:18.810Z,4.85
2019-03-18T03:58:47.911Z,5.10
2019-03-18T04:01:17.153Z,5.22
2019-03-18T04:03:46.679Z,5.87
2019-03-18T04:06:15.948Z,5.62
2019-03-18T04:08:45.157Z,5.05
2019-03-18T04:11:14.451Z,4.60
2019-03-18T04:13:43.678Z,6.58
2019-03-18T04:16:12.816Z,4.60
2019-03-18T04:18:41.981Z,5.28
2019-03-18T04:21:11.084Z,6.60
2019-03-18T04:23:40.239Z,6.97
2019-03-18T04:26:09.360Z,7.60
2019-03-18T04:28:38.468Z,6.60
2019-03-18T04:31:07.613Z,7.70
2019-03-18T04:33:39.189Z,7.67
2019-03-18T04:36:07.693Z,7.00
2019-03-18T04:38:36.887Z,8.70
2019-03-18T04:41:06.018Z,7.92
2019-03-18T04:43:35.163Z,8.65
2019-03-18T04:46:04.275Z,7.60
2019-03-18T04:48:33.430Z,7.65
2019-03-18T04:51:02.524Z,8.43
2019-03-18T04:53:31.634Z,7.67
2019-03-18T04:56:00.770Z,10.20
2019-03-18T04:58:29.918Z,10.55
2019-03-18T05:00:59.089Z,9.38
2019-03-18T05:03:28.232Z,11.10
2019-03-18T05:05:57.408Z,12.13
2019-03-18T05:08:26.555Z,9.75
2019-03-18T05:10:55.688Z,10.18
2019-03-18T05:13:26.570Z,11.53
2019-03-18T05:15:55.830Z,9.85
2019-03-18T05:18:24.963Z,13.45
2019-03-18T05:20:54.099Z,12.23
2019-03-18T05:23:23.229Z,11.30
2019-03-18T05:25:52.341Z,9.93
2019-03-18T05:28:21.544Z,11.08
2019-03-18T05:30:50.641Z,12.03
2019-03-18T05:33:19.777Z,12.30
2019-03-18T05:35:48.897Z,11.00
2019-03-18T05:38:18.021Z,10.65
2019-03-18T05:40:47.133Z,9.90
2019-03-18T05:43:16.270Z,10.63
2019-03-18T05:45:45.371Z,11.15
2019-03-18T05:48:14.604Z,12.58
2019-03-18T05:50:43.713Z,11.55
2019-03-18T05:53:12.930Z,11.35
2019-03-18T05:55:42.054Z,11.50
2019-03-18T05:58:11.207Z,12.45
2019-03-18T06:00:40.317Z,11.65
2019-03-18T06:03:09.443Z,11.33
2019-03-18T06:05:38.562Z,11.75
2019-03-18T06:08:07.786Z,9.88
2019-03-18T06:10:36.902Z,12.35
2019-03-18T06:13:06.026Z,11.03
2019-03-18T06:15:35.160Z,10.53
2019-03-18T06:18:04.282Z,10.15
2019-03-18T06:20:33.435Z,12.10
2019-03-18T06:23:02.590Z,10.98
2019-03-18T06:25:31.745Z,12.93
2019-03-18T06:28:01.059Z,11.10
2019-03-18T06:30:30.559Z,11.08
2019-03-18T06:32:59.716Z,10.82
2019-03-18T06:35:28.839Z,11.15
2019-03-18T06:37:58.011Z,9.88
2019-03-18T06:40:27.135Z,10.08
2019-03-18T06:42:56.285Z,10.00
2019-03-18T06:45:25.397Z,9.50
2019-03-18T06:48:04.346Z,10.03
2019-03-18T06:50:25.348Z,10.35
2019-03-18T06:52:54.529Z,9.60
2019-03-18T06:55:23.684Z,8.15
2019-03-18T06:57:52.810Z,8.70
2019-03-18T07:00:22.222Z,9.83
2019-03-18T07:02:51.338Z,8.20
2019-03-18T07:05:20.456Z,9.48
2019-03-18T07:07:49.636Z,8.63
2019-03-18T07:10:18.750Z,8.38
2019-03-18T07:12:47.867Z,8.95
2019-03-18T07:15:17.026Z,8.38
2019-03-18T07:17:46.386Z,8.13
2019-03-18T07:20:15.672Z,7.12
2019-03-18T07:22:44.864Z,8.13
2019-03-18T07:25:14.016Z,7.67
2019-03-18T07:27:43.137Z,8.08
2019-03-18T07:30:12.492Z,8.13
2019-03-18T07:32:41.632Z,8.48
2019-03-18T07:35:10.758Z,9.03
2019-03-18T07:37:39.903Z,10.93
2019-03-18T07:40:11.352Z,9.18
2019-03-18T07:42:40.580Z,9.58
2019-03-18T07:45:10.183Z,10.80
2019-03-18T07:47:39.307Z,8.53
2019-03-18T07:50:10.401Z,9.75
2019-03-18T07:52:39.636Z,8.50
2019-03-18T07:55:08.851Z,9.45
2019-03-18T07:57:37.991Z,7.83
2019-03-18T08:00:07.270Z,9.37
2019-03-18T08:02:36.426Z,9.23
2019-03-18T08:05:06.955Z,7.67
2019-03-18T08:07:36.201Z,9.00
2019-03-18T08:10:05.958Z,9.18
2019-03-18T08:12:35.104Z,8.23
2019-03-18T08:15:04.253Z,10.13
2019-03-18T08:17:33.353Z,9.13
2019-03-18T08:20:03.508Z,9.68
2019-03-18T08:22:32.912Z,9.13
2019-03-18T08:25:02.040Z,9.45
2019-03-18T08:27:31.154Z,8.28
2019-03-18T08:30:00.503Z,8.65
2019-03-18T08:32:29.617Z,10.13
2019-03-18T08:34:58.754Z,8.40
2019-03-18T08:37:27.886Z,6.70
2019-03-18T08:39:57.052Z,7.53
2019-03-18T08:42:26.229Z,6.55
2019-03-18T08:44:55.324Z,6.97
2019-03-18T08:47:24.446Z,6.67
2019-03-18T08:49:53.601Z,6.67
2019-03-18T08:52:22.994Z,6.15
2019-03-18T08:54:52.141Z,6.10
2019-03-18T08:57:21.257Z,6.10
2019-03-18T08:59:50.366Z,6.17
2019-03-18T09:02:19.525Z,6.55
2019-03-18T09:04:48.706Z,5.20
2019-03-18T09:07:17.961Z,5.25
2019-03-18T09:09:47.131Z,5.10
2019-03-18T09:12:16.265Z,5.17
2019-03-18T09:14:45.555Z,5.90
2019-03-18T09:17:14.715Z,4.90
2019-03-18T09:19:43.875Z,5.00
2019-03-18T09:22:13.119Z,4.70
2019-03-18T09:24:42.253Z,5.05
2019-03-18T09:27:11.377Z,5.00
2019-03-18T09:29:40.513Z,4.67
2019-03-18T09:32:09.641Z,4.42
2019-03-18T09:34:38.765Z,4.87
2019-03-18T09:37:08.191Z,4.70
2019-03-18T09:39:37.409Z,4.33
2019-03-18T09:42:06.515Z,4.70
2019-03-18T09:44:35.685Z,4.60
2019-03-18T09:47:04.835Z,4.55
2019-03-18T09:49:33.950Z,3.90
2019-03-18T09:52:03.088Z,4.12
2019-03-18T09:54:32.251Z,4.65
2019-03-18T09:57:01.406Z,4.40
2019-03-18T09:59:30.666Z,4.92
2019-03-18T10:01:59.843Z,3.87
2019-03-18T10:04:28.970Z,3.98
2019-03-18T10:06:58.136Z,3.72
2019-03-18T10:09:27.264Z,3.40
2019-03-18T10:11:56.384Z,3.92
2019-03-18T10:14:25.541Z,3.40
2019-03-18T10:16:54.639Z,3.65
2019-03-18T10:19:33.065Z,2.92
2019-03-18T10:21:54.902Z,3.02
2019-03-18T10:24:24.077Z,2.30
2019-03-18T10:26:53.208Z,3.10
2019-03-18T10:29:22.482Z,3.25
2019-03-18T10:31:51.657Z,2.85
2019-03-18T10:34:20.901Z,2.95
2019-03-18T10:36:50.053Z,2.77
2019-03-18T10:39:19.204Z,2.58
2019-03-18T10:41:48.343Z,2.90
2019-03-18T10:44:17.857Z,2.83
2019-03-18T10:46:47.045Z,2.55
2019-03-18T10:49:16.161Z,3.05
2019-03-18T10:51:48.068Z,2.60
2019-03-18T10:54:16.194Z,2.70
2019-03-18T10:56:45.318Z,2.37
2019-03-18T10:59:14.461Z,2.55
2019-03-18T11:01:43.670Z,2.67
2019-03-18T11:04:13.056Z,2.80
2019-03-18T11:06:42.220Z,2.95
2019-03-18T11:09:11.338Z,2.45
2019-03-18T11:11:40.491Z,3.12
2019-03-18T11:14:09.770Z,2.40
2019-03-18T11:16:39.000Z,2.72
2019-03-18T11:19:08.166Z,2.90
2019-03-18T11:21:37.288Z,2.27
2019-03-18T11:24:06.444Z,2.50
2019-03-18T11:26:35.546Z,2.25
2019-03-18T11:29:05.984Z,2.20
2019-03-18T11:31:35.697Z,2.10
2019-03-18T11:34:05.098Z,2.77
2019-03-18T11:36:34.220Z,2.42
2019-03-18T11:39:03.447Z,2.50
2019-03-18T11:41:32.612Z,2.37
2019-03-18T11:44:01.803Z,2.08
2019-03-18T11:46:30.937Z,2.90
2019-03-18T11:49:01.468Z,3.02
2019-03-18T11:51:30.595Z,2.33
2019-03-18T11:53:59.721Z,2.30
2019-03-18T11:56:28.965Z,2.60
2019-03-18T11:58:58.145Z,2.08
2019-03-18T12:01:27.322Z,2.00
2019-03-18T12:03:56.498Z,2.47
2019-03-18T12:06:25.640Z,2.25
2019-03-18T12:08:54.776Z,2.30
2019-03-18T12:11:23.906Z,1.92
2019-03-18T12:13:53.032Z,2.40
2019-03-18T12:16:22.161Z,2.30
2019-03-18T12:18:51.346Z,2.62
2019-03-18T12:21:20.446Z,1.72
2019-03-18T12:23:49.550Z,1.57
2019-03-18T12:26:18.673Z,2.15
2019-03-18T12:28:58.172Z,1.82
2019-03-18T12:31:27.367Z,2.00
2019-03-18T12:33:57.538Z,1.50
2019-03-18T12:36:26.819Z,1.70
2019-03-18T12:38:55.956Z,1.80
2019-03-18T12:41:25.095Z,1.30
2019-03-18T12:43:54.585Z,1.55
2019-03-18T12:46:23.713Z,1.37
2019-03-18T12:48:52.833Z,1.12
2019-03-18T12:51:22.023Z,1.50
2019-03-18T12:53:51.193Z,1.00
2019-03-18T12:56:20.323Z,1.55
2019-03-18T12:58:49.503Z,1.30
2019-03-18T13:01:18.637Z,1.67
2019-03-18T13:03:47.757Z,1.40
2019-03-18T13:06:16.894Z,1.60
2019-03-18T13:08:46.027Z,1.40
2019-03-18T13:11:15.238Z,1.70
2019-03-18T13:13:44.493Z,1.90
2019-03-18T13:16:13.657Z,1.72
2019-03-18T13:18:43.017Z,1.98
2019-03-18T13:21:12.205Z,1.75
2019-03-18T13:23:41.326Z,1.35
2019-03-18T13:26:10.463Z,1.77
2019-03-18T13:28:39.674Z,1.80
2019-03-18T13:31:08.934Z,1.85
2019-03-18T13:33:38.075Z,1.80
2019-03-18T13:36:07.670Z,2.00
2019-03-18T13:38:36.796Z,2.30
2019-03-18T13:41:05.992Z,1.72
2019-03-18T13:43:35.112Z,2.98
2019-03-18T13:46:04.247Z,2.40
2019-03-18T13:48:33.382Z,2.35
2019-03-18T13:51:02.505Z,2.15
2019-03-18T13:53:31.662Z,1.65
2019-03-18T13:56:00.792Z,2.00
2019-03-18T13:58:29.922Z,1.80
2019-03-18T14:00:59.100Z,2.10
2019-03-18T14:03:28.295Z,2.27
2019-03-18T14:05:57.444Z,2.10
2019-03-18T14:08:26.582Z,2.02
2019-03-18T14:10:55.727Z,1.50
2019-03-18T14:13:24.861Z,1.22
2019-03-18T14:15:54.018Z,1.30
2019-03-18T14:18:23.120Z,1.40
2019-03-18T14:20:52.300Z,1.42
2019-03-18T14:23:21.391Z,1.30
2019-03-18T14:25:50.509Z,1.50
2019-03-18T14:28:19.648Z,1.40
2019-03-18T14:30:48.846Z,1.50
2019-03-18T14:33:18.003Z,1.47
2019-03-18T14:35:47.165Z,1.60
2019-03-18T14:38:16.391Z,1.32
2019-03-18T14:40:45.559Z,1.30
2019-03-18T14:43:14.670Z,1.45
2019-03-18T14:45:43.831Z,1.75
2019-03-18T14:48:12.960Z,1.90
2019-03-18T14:50:42.122Z,1.70
2019-03-18T14:53:11.240Z,2.10
2019-03-18T14:55:40.369Z,1.92
2019-03-18T14:58:09.485Z,1.50
2019-03-18T15:00:38.637Z,1.90
2019-03-18T15:03:07.756Z,1.90
2019-03-18T15:05:37.163Z,1.52
2019-03-18T15:08:06.795Z,2.10
2019-03-18T15:10:35.912Z,1.90
2019-03-18T15:13:05.058Z,2.08
2019-03-18T15:15:34.213Z,1.72
2019-03-18T15:18:03.353Z,1.45
2019-03-18T15:20:47.661Z,1.77
2019-03-18T15:23:16.748Z,1.72
2019-03-18T15:25:45.888Z,1.57
2019-03-18T15:28:15.006Z,1.60
2019-03-18T15:30:44.138Z,1.98
2019-03-18T15:33:13.390Z,2.10
2019-03-18T15:35:42.570Z,1.80
2019-03-18T15:38:11.768Z,1.70
2019-03-18T15:40:40.941Z,1.90
2019-03-18T15:43:10.066Z,1.60
2019-03-18T15:45:39.240Z,1.87
2019-03-18T15:48:08.390Z,1.37
2019-03-18T15:50:37.565Z,1.77
2019-03-18T15:53:06.718Z,1.92
2019-03-18T15:55:35.888Z,2.15
2019-03-18T15:58:05.011Z,1.90
2019-03-18T16:00:34.163Z,1.60
2019-03-18T16:03:03.331Z,1.82
2019-03-18T16:05:32.469Z,1.65
2019-03-18T16:08:01.731Z,2.22
2019-03-18T16:10:30.862Z,1.75
2019-03-18T16:13:00.026Z,1.77
2019-03-18T16:15:29.157Z,1.50
2019-03-18T16:17:58.348Z,1.85
2019-03-18T16:20:28.378Z,1.20
2019-03-18T16:22:57.728Z,1.70
2019-03-18T16:25:26.979Z,1.90
2019-03-18T16:27:56.159Z,1.80
2019-03-18T16:30:25.406Z,2.20
2019-03-18T16:32:54.603Z,1.80
2019-03-18T16:35:23.882Z,1.40
2019-03-18T16:37:53.010Z,1.85
2019-03-18T16:40:24.518Z,1.52
2019-03-18T16:42:53.649Z,1.40
2019-03-18T16:45:22.813Z,1.40
2019-03-18T16:47:52.007Z,1.35
2019-03-18T16:50:21.164Z,1.70
2019-03-18T16:52:50.342Z,1.65
2019-03-18T16:55:19.507Z,1.72
2019-03-18T16:57:48.684Z,1.62
2019-03-18T17:00:18.885Z,1.30
2019-03-18T17:02:48.073Z,1.35
2019-03-18T17:05:17.261Z,1.80
2019-03-18T17:07:46.433Z,3.02
2019-03-18T17:10:15.741Z,1.82
2019-03-18T17:12:44.994Z,2.33
2019-03-18T17:15:14.252Z,1.77
2019-03-18T17:17:43.431Z,4.10
2019-03-18T17:20:12.831Z,2.10
2019-03-18T17:22:48.950Z,1.70
2019-03-18T17:25:14.856Z,1.25
2019-03-18T17:27:44.090Z,1.70
2019-03-18T17:30:15.505Z,2.02
2019-03-18T17:32:44.690Z,1.90
2019-03-18T17:35:14.760Z,1.92
2019-03-18T17:37:44.050Z,1.42
2019-03-18T17:40:13.738Z,1.60
2019-03-18T17:42:43.142Z,1.67
2019-03-18T17:45:12.831Z,3.12
2019-03-18T17:47:42.014Z,4.37
2019-03-18T17:50:13.642Z,2.58
2019-03-18T17:52:42.908Z,2.70
2019-03-18T17:55:12.100Z,2.92
2019-03-18T17:57:41.278Z,3.83
2019-03-18T18:00:14.045Z,8.58
2019-03-18T18:02:43.255Z,7.30
2019-03-18T18:05:12.445Z,9.65
2019-03-18T18:07:41.707Z,8.55
2019-03-18T18:10:11.111Z,16.15
2019-03-18T18:12:40.310Z,11.60
2019-03-18T18:15:09.859Z,6.45
2019-03-18T18:17:39.292Z,8.80
2019-03-18T18:20:08.897Z,5.80
2019-03-18T18:22:40.978Z,4.70
2019-03-18T18:25:10.452Z,5.55
2019-03-18T18:27:39.863Z,6.00
2019-03-18T18:30:09.228Z,6.60
2019-03-18T18:32:57.955Z,8.05
2019-03-18T18:35:27.119Z,6.55
2019-03-18T18:37:56.279Z,5.08
2019-03-18T18:40:25.425Z,4.70
2019-03-18T18:42:54.725Z,6.40
2019-03-18T18:45:23.866Z,6.10
2019-03-18T18:47:53.125Z,10.30
2019-03-18T18:50:22.298Z,7.95
2019-03-18T18:52:51.464Z,3.27
2019-03-18T18:55:22.342Z,2.47
2019-03-18T18:57:51.485Z,2.30
2019-03-18T19:00:21.809Z,2.20
2019-03-18T19:02:51.204Z,2.50
2019-03-18T19:05:20.430Z,2.70
2019-03-18T19:07:49.809Z,2.20
2019-03-18T19:10:18.981Z,2.42
2019-03-18T19:12:48.216Z,9.85
2019-03-18T19:15:19.371Z,6.40
2019-03-18T19:17:48.503Z,16.48
2019-03-18T19:20:17.727Z,10.48
2019-03-18T19:23:02.491Z,15.53
2019-03-18T19:25:32.767Z,8.25
2019-03-18T19:28:02.421Z,5.35
2019-03-18T19:30:31.617Z,2.62
2019-03-18T19:33:00.813Z,2.80
2019-03-18T19:35:30.059Z,1.95
2019-03-18T19:37:59.251Z,2.62
2019-03-18T19:40:28.617Z,2.10
2019-03-18T19:42:57.839Z,2.25
2019-03-18T19:45:27.211Z,1.92
2019-03-18T19:47:56.558Z,2.80
2019-03-18T19:50:26.076Z,1.95
2019-03-18T19:52:55.281Z,1.95
2019-03-18T19:55:24.546Z,2.00
2019-03-18T19:57:53.827Z,1.82
2019-03-18T20:00:23.356Z,2.52
2019-03-18T20:02:52.970Z,1.80
2019-03-18T20:05:22.363Z,2.33
2019-03-18T20:07:51.828Z,2.40
2019-03-18T20:10:21.361Z,1.70
2019-03-18T20:12:50.889Z,2.33
2019-03-18T20:15:20.441Z,2.47
2019-03-18T20:17:49.764Z,2.47
2019-03-18T20:20:19.076Z,2.83
2019-03-18T20:22:48.766Z,2.17
2019-03-18T20:25:18.712Z,2.30
2019-03-18T20:27:47.962Z,2.17
2019-03-18T20:30:17.504Z,3.62
2019-03-18T20:32:46.748Z,2.90
2019-03-18T20:35:16.152Z,2.37
2019-03-18T20:37:45.303Z,1.80
2019-03-18T20:40:14.739Z,2.22
2019-03-18T20:42:44.319Z,2.10
2019-03-18T20:45:15.080Z,1.85
2019-03-18T20:47:44.438Z,1.98
2019-03-18T20:50:15.233Z,1.52
2019-03-18T20:52:44.386Z,1.77
2019-03-18T20:55:13.842Z,1.65
2019-03-18T20:57:43.023Z,1.72
2019-03-18T21:00:13.255Z,1.77
2019-03-18T21:02:42.713Z,2.30
2019-03-18T21:05:12.126Z,3.08
2019-03-18T21:07:41.780Z,5.03
2019-03-18T21:10:11.135Z,3.45
2019-03-18T21:12:41.491Z,4.10
2019-03-18T21:15:11.822Z,3.40
2019-03-18T21:17:41.035Z,3.95
2019-03-18T21:20:12.481Z,3.10
2019-03-18T21:22:41.661Z,3.35
2019-03-18T21:25:10.998Z,3.10
2019-03-18T21:27:40.212Z,2.33
2019-03-18T21:30:10.373Z,2.25
2019-03-18T21:32:39.559Z,2.58
2019-03-18T21:35:09.111Z,2.15
2019-03-18T21:37:38.401Z,2.55
2019-03-18T21:40:08.337Z,2.70
2019-03-18T21:42:37.537Z,2.35
2019-03-18T21:45:07.051Z,2.12
2019-03-18T21:47:36.210Z,2.65
2019-03-18T21:50:05.973Z,1.92
2019-03-18T21:52:35.178Z,1.87
2019-03-18T21:55:04.409Z,7.62
2019-03-18T21:57:33.593Z,4.03
2019-03-18T22:00:02.912Z,2.50
2019-03-18T22:02:32.081Z,2.55
2019-03-18T22:05:01.283Z,2.10
2019-03-18T22:07:30.428Z,2.25
2019-03-18T22:09:59.599Z,2.20
2019-03-18T22:12:28.752Z,1.95
2019-03-18T22:14:57.885Z,2.30
2019-03-18T22:17:27.028Z,2.10
2019-03-18T22:19:56.213Z,1.92
2019-03-18T22:22:25.548Z,2.02
2019-03-18T22:24:54.721Z,1.50
2019-03-18T22:27:23.883Z,2.40
2019-03-18T22:29:53.007Z,2.17
2019-03-18T22:32:22.180Z,2.50
2019-03-18T22:34:51.291Z,2.50
2019-03-18T22:37:20.506Z,2.30
2019-03-18T22:39:49.644Z,1.80
2019-03-18T22:42:18.907Z,1.70
2019-03-18T22:44:48.020Z,1.82
2019-03-18T22:47:17.179Z,2.30
2019-03-18T22:50:05.262Z,2.35
2019-03-18T22:52:34.428Z,3.95
2019-03-18T22:55:03.578Z,2.85
2019-03-18T22:57:32.741Z,3.00
2019-03-18T23:00:02.025Z,2.85
2019-03-18T23:02:31.195Z,2.00
2019-03-18T23:05:00.378Z,3.72
2019-03-18T23:07:29.478Z,2.90
2019-03-18T23:09:58.619Z,2.85
2019-03-18T23:12:27.787Z,2.40
2019-03-18T23:14:56.917Z,2.10
2019-03-18T23:17:26.081Z,2.60
2019-03-18T23:19:55.195Z,2.40
2019-03-18T23:22:24.299Z,2.15
2019-03-18T23:24:53.456Z,2.35
2019-03-18T23:27:22.563Z,2.15
2019-03-18T23:29:51.715Z,3.05
2019-03-18T23:32:20.840Z,4.03
2019-03-18T23:34:49.957Z,4.12
2019-03-18T23:37:19.078Z,4.90
2019-03-18T23:39:48.264Z,4.87
2019-03-18T23:42:17.452Z,4.30
2019-03-18T23:44:46.605Z,4.20
2019-03-18T23:47:15.875Z,3.98
2019-03-18T23:49:47.415Z,4.25
2019-03-18T23:52:16.055Z,4.03
2019-03-18T23:54:45.184Z,3.75
2019-03-18T23:57:14.322Z,3.62
2019-03-18T23:59:43.441Z,2.80
